Terminal Aerodrome Forecast
Issued by NWS

Home | Current Version | Previous Version | Text Only | Print | Product List | Glossary Off
Versions: 1 2 3 4 5 6 7 8 9 10 11 12 13 14 15 16 17 18 19 20

434
FTUS43 KMPX 212212 AAA
TAFAXN
TAF AMD
KAXN 212212Z 2122/2218 07006KT 1/2SM FG VV003
     FM220300 VRB03KT 1/2SM FG VV002
     FM221500 32005KT 3SM BR OVC004=

USA.gov is the U.S. government's official web portal to all federal, state and local government web resources and services.